Time;durP1;ratioP1;P1;durP2;ratioP2;P2;SDS_P1;SDS_P2;PMS_P1;PMS_P2;Temp;Humidity;BMP_temperature;BMP_pressure;BME280_temperature;BME280_humidity;BME280_pressure;Samples;Min_cycle;Max_cycle;Signal;HPM_P1;HPM_P2
2021/09/27 07:03:28;;;;;;;10.20;9.20;;;15.50;99.90;;;;;;3272280;27;20451;-94
2021/09/27 07:05:54;;;;;;;8.67;7.77;;;15.80;99.90;;;;;;4904154;29;20439;-94
2021/09/27 07:08:23;;;;;;;9.73;8.73;;;16.00;99.90;;;;;;4904245;29;20464;-94
2021/09/27 07:10:52;;;;;;;8.73;7.70;;;16.20;99.90;;;;;;4904114;29;20494;-95
2021/09/27 07:13:19;;;;;;;8.13;7.40;;;16.40;99.90;;;;;;4904304;29;20459;-94
2021/09/27 07:15:46;;;;;;;9.20;8.20;;;16.50;99.90;;;;;;4904183;29;20442;-95
2021/09/27 07:18:13;;;;;;;8.33;7.53;;;16.50;99.90;;;;;;4903993;29;20479;-95
2021/09/27 07:20:44;;;;;;;10.83;9.47;;;16.50;99.90;;;;;;4904173;29;20469;-94
2021/09/27 07:23:14;;;;;;;9.27;8.40;;;16.60;99.90;;;;;;4904264;29;20432;-95
2021/09/27 07:25:42;;;;;;;8.60;7.70;;;16.80;99.90;;;;;;4903936;29;20442;-95
2021/09/27 07:28:09;;;;;;;9.50;8.07;;;17.00;99.90;;;;;;4904077;29;20462;-94
2021/09/27 07:30:39;;;;;;;8.53;7.63;;;17.20;99.90;;;;;;4904105;29;20435;-94
2021/09/27 07:33:07;;;;;;;8.83;7.60;;;17.50;99.90;;;;;;4903879;29;20439;-95
2021/09/27 07:35:34;;;;;;;8.93;8.13;;;17.60;99.90;;;;;;4903786;29;20444;-95
2021/09/27 07:38:03;;;;;;;8.00;6.83;;;17.80;99.90;;;;;;4903616;29;20523;-95
2021/09/27 07:40:35;;;;;;;7.77;6.97;;;18.10;99.90;;;;;;4903920;29;20515;-96
2021/09/27 07:43:08;;;;;;;8.77;7.87;;;18.20;99.90;;;;;;4903830;29;20433;-95
2021/09/27 07:45:38;;;;;;;8.90;7.80;;;18.40;99.90;;;;;;4904017;29;20435;-94
2021/09/27 07:48:10;;;;;;;7.90;7.20;;;18.60;99.90;;;;;;4903614;29;20444;-95
2021/09/27 07:50:41;;;;;;;8.00;7.30;;;18.60;99.90;;;;;;4903858;29;20440;-95
2021/09/27 07:53:11;;;;;;;8.03;6.90;;;18.70;99.90;;;;;;4903916;29;20440;-96
2021/09/27 07:55:38;;;;;;;8.40;7.50;;;18.80;99.90;;;;;;4903792;29;20512;-96
2021/09/27 07:58:07;;;;;;;7.60;7.00;;;18.90;99.90;;;;;;4903528;29;20490;-95
2021/09/27 08:00:35;;;;;;;7.70;6.97;;;19.10;99.90;;;;;;4903815;29;20699;-95
2021/09/27 08:03:02;;;;;;;8.87;7.13;;;19.30;99.90;;;;;;4903470;29;20448;-95
2021/09/27 08:05:41;;;;;;;7.13;6.37;;;19.40;99.90;;;;;;4903773;29;20436;-95
2021/09/27 08:08:30;;;;;;;6.30;5.70;;;19.60;99.90;;;;;;4903615;29;20436;-95
2021/09/27 08:10:59;;;;;;;5.90;5.40;;;19.80;99.90;;;;;;4904839;29;20440;-94
2021/09/27 08:13:53;;;;;;;6.00;5.50;;;19.90;99.90;;;;;;4907141;29;20424;-95
2021/09/27 08:16:33;;;;;;;5.60;5.10;;;20.00;99.90;;;;;;4905439;29;20467;-96
2021/09/27 08:19:08;;;;;;;6.13;5.53;;;20.10;99.90;;;;;;4905519;29;20478;-96
2021/09/27 08:21:40;;;;;;;5.47;4.97;;;20.20;99.90;;;;;;4905661;29;20466;-94
2021/09/27 08:24:10;;;;;;;5.10;4.57;;;20.20;99.90;;;;;;4905448;29;20473;-95
2021/09/27 08:26:37;;;;;;;5.60;5.10;;;20.20;99.90;;;;;;4905179;29;20507;-95
2021/09/27 08:29:16;;;;;;;4.83;4.43;;;20.30;99.90;;;;;;4905393;29;20454;-95
2021/09/27 08:31:49;;;;;;;5.10;4.70;;;20.40;99.90;;;;;;4905187;29;20464;-95
2021/09/27 08:34:29;;;;;;;4.97;4.57;;;20.50;99.90;;;;;;4905346;29;20447;-95
2021/09/27 08:37:07;;;;;;;4.70;4.30;;;20.60;99.90;;;;;;4904939;29;20479;-95
2021/09/27 08:39:57;;;;;;;5.40;4.90;;;20.70;99.90;;;;;;4905446;29;20456;-95
2021/09/27 08:42:41;;;;;;;5.20;4.70;;;20.80;99.90;;;;;;4905009;29;20464;-95
2021/09/27 08:45:28;;;;;;;5.43;4.90;;;21.00;99.90;;;;;;4904993;29;20455;-95
2021/09/27 08:53:43;;;;;;;4.80;4.40;;;21.20;99.90;;;;;;5008421;23;20456;-94
2021/09/27 08:56:23;;;;;;;5.70;4.00;;;21.20;99.90;;;;;;4893120;29;20467;-94
2021/09/27 08:59:13;;;;;;;4.40;4.00;;;21.10;99.90;;;;;;4906048;29;20535;-95
2021/09/27 09:02:19;;;;;;;4.60;4.13;;;20.90;99.90;;;;;;4905948;29;20489;-95
2021/09/27 09:15:41;;;;;;;4.20;3.90;;;21.50;99.90;;;;;;4844108;29;20470;-95
2021/09/27 09:22:00;;;;;;;4.73;4.33;;;22.20;99.90;;;;;;4738491;30;20462;-94
2021/09/27 09:24:48;;;;;;;4.50;4.10;;;22.40;99.90;;;;;;4747003;30;20454;-95
2021/09/27 09:27:30;;;;;;;;;;;;;;;;;;;;;
2021/09/27 09:30:20;;;;;;;;;;;;;;;;;;;;;
2021/09/27 09:36:27;;;;;;;3.73;3.43;;;22.90;99.90;;;;;;4865559;29;20430;-95
2021/09/27 09:39:13;;;;;;;3.43;3.13;;;23.10;99.90;;;;;;4903956;29;20455;-95
2021/09/27 09:42:02;;;;;;;4.57;3.87;;;23.20;99.90;;;;;;4905360;29;20440;-95
2021/09/27 09:45:00;;;;;;;3.90;3.60;;;23.40;99.90;;;;;;4905338;29;20412;-94
2021/09/27 09:47:54;;;;;;;4.03;3.53;;;23.40;99.90;;;;;;4905093;29;20432;-95
2021/09/27 09:51:00;;;;;;;3.87;3.50;;;23.50;99.90;;;;;;4905153;29;20440;-95
2021/09/27 09:54:01;;;;;;;4.30;3.90;;;23.50;99.90;;;;;;4903597;29;20435;-94
2021/09/27 09:56:50;;;;;;;3.87;3.50;;;23.20;99.90;;;;;;4904704;29;20479;-94
2021/09/27 09:59:25;;;;;;;4.30;3.90;;;23.20;99.90;;;;;;4904974;29;20429;-95
2021/09/27 10:02:18;;;;;;;4.10;3.80;;;23.30;99.90;;;;;;4905009;29;20435;-95
2021/09/27 10:04:59;;;;;;;3.73;3.43;;;23.50;99.90;;;;;;4905096;29;20491;-95
2021/09/27 10:08:18;;;;;;;4.03;3.03;;;23.70;99.90;;;;;;4904907;29;20468;-94
2021/09/27 10:11:08;;;;;;;3.50;3.23;;;23.70;99.90;;;;;;4846882;29;20438;-95
2021/09/27 10:13:55;;;;;;;3.97;3.30;;;23.30;99.90;;;;;;4846174;29;20469;-96
2021/09/27 10:16:56;;;;;;;3.73;3.43;;;23.50;99.90;;;;;;4903620;29;20478;-96
2021/09/27 10:28:40;;;;;;;3.70;3.40;;;24.40;99.90;;;;;;4858836;29;20448;-95
2021/09/27 10:31:28;;;;;;;3.50;3.20;;;24.70;99.90;;;;;;4866241;29;20472;-95
2021/09/27 10:34:28;;;;;;;4.53;3.67;;;24.70;99.90;;;;;;4866620;29;20445;-95
2021/09/27 10:41:05;;;;;;;3.30;3.00;;;24.80;99.90;;;;;;4866458;29;20430;-96
2021/09/27 10:43:44;;;;;;;3.30;3.00;;;24.70;99.90;;;;;;4867323;29;20442;-96
2021/09/27 10:47:04;;;;;;;;;;;;;;;;;;;;;
2021/09/27 10:59:25;;;;;;;2.40;2.20;;;24.70;99.90;;;;;;4859093;29;20474;-96
2021/09/27 11:06:22;;;;;;;2.70;2.50;;;23.90;99.90;;;;;;4832552;29;20442;-95
2021/09/27 11:16:08;;;;;;;2.83;2.63;;;24.60;99.90;;;;;;4863997;29;20437;-96
2021/09/27 11:19:32;;;;;;;2.53;2.33;;;25.10;99.90;;;;;;4865647;29;20457;-96
2021/09/27 11:39:56;;;;;;;2.67;2.13;;;24.50;99.90;;;;;;4903434;29;20523;-96
2021/09/27 11:46:25;;;;;;;2.67;2.23;;;23.90;99.90;;;;;;4847070;29;20445;-96
2021/09/27 11:49:12;;;;;;;2.90;2.70;;;23.50;99.90;;;;;;4879544;29;20443;-95
2021/09/27 11:58:18;;;;;;;2.40;2.20;;;23.60;99.90;;;;;;4925590;29;20448;-94
2021/09/27 12:01:02;;;;;;;2.63;2.43;;;23.50;99.90;;;;;;4925913;29;20467;-94
2021/09/27 12:03:57;;;;;;;3.50;2.90;;;23.40;99.90;;;;;;4926157;29;20443;-94
2021/09/27 12:06:42;;;;;;;3.23;2.90;;;23.40;99.90;;;;;;4925891;29;20476;-94
2021/09/27 12:15:42;;;;;;;;;;;;;;;;;;;;;
2021/09/27 12:18:37;;;;;;;3.43;2.80;;;23.50;99.90;;;;;;4920852;29;20453;-93
2021/09/27 12:21:42;;;;;;;3.07;2.60;;;23.30;99.90;;;;;;4922343;29;20436;-93
2021/09/27 12:24:27;;;;;;;3.10;2.83;;;23.20;99.90;;;;;;4901074;29;20510;-94
2021/09/27 12:27:24;;;;;;;2.77;2.53;;;23.20;99.90;;;;;;4906545;29;20437;-94
2021/09/27 12:30:03;;;;;;;3.20;2.90;;;23.30;99.90;;;;;;4906656;29;20439;-96
2021/09/27 12:32:47;;;;;;;3.10;2.70;;;23.40;99.90;;;;;;4906626;29;20463;-94
2021/09/27 12:35:37;;;;;;;3.40;2.50;;;23.60;99.90;;;;;;4906737;29;20479;-93
2021/09/27 12:38:25;;;;;;;2.93;2.73;;;23.80;99.90;;;;;;4906396;29;20454;-94
2021/09/27 12:41:16;;;;;;;2.77;2.53;;;23.90;99.90;;;;;;4906304;29;20454;-94
2021/09/27 12:43:51;;;;;;;2.60;2.40;;;23.80;99.90;;;;;;4906594;29;20440;-95
2021/09/27 12:46:58;;;;;;;3.03;2.80;;;23.50;99.90;;;;;;4906389;29;20466;-94
2021/09/27 12:49:36;;;;;;;3.07;2.47;;;23.30;99.90;;;;;;4884268;29;20511;-94
2021/09/27 12:52:21;;;;;;;2.80;2.50;;;22.90;99.90;;;;;;4906191;29;20450;-95
2021/09/27 12:58:02;;;;;;;2.97;2.77;;;22.40;99.90;;;;;;4904004;29;20467;-94
2021/09/27 13:00:41;;;;;;;3.30;3.00;;;22.20;99.90;;;;;;4906075;29;20440;-94
2021/09/27 15:02:14;;;;;;;3.00;2.70;;;21.00;99.90;;;;;;5257839;23;20536;-95
2021/09/27 15:07:19;;;;;;;3.03;2.83;;;20.90;99.90;;;;;;4874489;29;20475;-73
2021/09/27 15:09:46;;;;;;;3.50;3.00;;;20.90;99.90;;;;;;4877066;29;20471;-73
2021/09/27 15:12:13;;;;;;;3.50;3.20;;;20.80;99.90;;;;;;4876125;29;20843;-73
2021/09/27 15:14:40;;;;;;;3.60;2.80;;;20.80;99.90;;;;;;4876996;29;20515;-74
2021/09/27 15:17:07;;;;;;;3.57;3.00;;;20.70;99.90;;;;;;4876074;29;20495;-74
2021/09/27 15:19:35;;;;;;;5.50;3.13;;;20.70;99.90;;;;;;4876955;29;20855;-74
2021/09/27 15:22:02;;;;;;;3.33;3.03;;;20.70;99.90;;;;;;4879771;29;20467;-74
2021/09/27 15:24:29;;;;;;;3.90;3.27;;;20.70;99.90;;;;;;4880646;29;20483;-74
2021/09/27 15:26:57;;;;;;;3.60;3.30;;;20.60;99.90;;;;;;4879981;29;20467;-74
2021/09/27 15:29:27;;;;;;;5.10;3.13;;;20.60;99.90;;;;;;4880779;29;20468;-74
2021/09/27 15:31:58;;;;;;;4.47;3.33;;;20.50;99.90;;;;;;4880149;29;20998;-74
2021/09/27 15:34:28;;;;;;;3.23;3.03;;;20.50;99.90;;;;;;4880444;29;20483;-74
2021/09/27 15:36:59;;;;;;;4.03;3.63;;;20.40;99.90;;;;;;4879819;29;20463;-74
2021/09/27 15:39:28;;;;;;;3.30;3.00;;;20.40;99.90;;;;;;4880317;29;20466;-74
2021/09/27 15:41:55;;;;;;;3.50;3.20;;;20.30;99.90;;;;;;4880236;29;20847;-74
2021/09/27 15:44:24;;;;;;;3.43;3.13;;;20.30;99.90;;;;;;4879905;29;21011;-74
2021/09/27 15:46:51;;;;;;;6.17;3.90;;;20.30;99.90;;;;;;4879951;29;20467;-75
2021/09/27 15:49:19;;;;;;;4.90;4.00;;;20.30;99.90;;;;;;4879954;29;20499;-74
2021/09/27 15:51:46;;;;;;;3.60;3.30;;;20.20;99.90;;;;;;4880158;29;20478;-74
2021/09/27 15:54:15;;;;;;;3.67;3.37;;;20.10;99.90;;;;;;4879779;29;20487;-74
2021/09/27 15:56:42;;;;;;;4.93;3.63;;;20.00;99.90;;;;;;4880259;29;20468;-75
2021/09/27 15:59:11;;;;;;;3.40;3.10;;;20.00;99.90;;;;;;4879635;29;20464;-74
2021/09/27 16:01:38;;;;;;;3.70;3.40;;;19.90;99.90;;;;;;4880412;29;20475;-75
2021/09/27 16:04:05;;;;;;;3.57;3.27;;;19.90;99.90;;;;;;4879559;29;21037;-75
2021/09/27 16:06:33;;;;;;;4.03;3.73;;;19.90;99.90;;;;;;4879114;29;20827;-74
2021/09/27 16:09:00;;;;;;;4.40;3.70;;;19.80;99.90;;;;;;4879488;29;20491;-75
2021/09/27 16:11:28;;;;;;;4.40;3.33;;;19.80;99.90;;;;;;4879272;29;20478;-74
2021/09/27 16:13:55;;;;;;;3.80;3.50;;;19.70;99.90;;;;;;4879553;29;20495;-75
2021/09/27 16:16:25;;;;;;;3.83;3.53;;;19.70;99.90;;;;;;4878276;29;20467;-74
2021/09/27 16:18:53;;;;;;;4.60;3.97;;;19.60;99.90;;;;;;4860224;29;21101;-75
2021/09/27 16:21:21;;;;;;;4.53;3.50;;;19.60;99.90;;;;;;4860580;29;20471;-74
2021/09/27 16:23:49;;;;;;;3.27;2.93;;;19.50;99.90;;;;;;4860843;29;20492;-74
2021/09/27 16:26:17;;;;;;;4.47;3.67;;;19.50;99.90;;;;;;4860616;29;20460;-74
2021/09/27 16:28:47;;;;;;;4.50;3.40;;;19.50;99.90;;;;;;4860297;29;20492;-74
2021/09/27 16:31:20;;;;;;;3.50;3.20;;;19.50;99.90;;;;;;4860994;29;21021;-74
2021/09/27 16:33:47;;;;;;;3.90;3.50;;;19.50;99.90;;;;;;4860541;29;20556;-75
2021/09/27 16:36:13;;;;;;;4.37;3.70;;;19.50;99.90;;;;;;4860653;29;20476;-75
2021/09/27 16:38:40;;;;;;;4.07;3.77;;;19.50;99.90;;;;;;4860162;29;20464;-74
2021/09/27 16:41:07;;;;;;;4.37;3.97;;;19.50;99.90;;;;;;4860677;29;20464;-74
2021/09/27 16:43:34;;;;;;;4.60;3.50;;;19.50;99.90;;;;;;4860664;29;20500;-76
2021/09/27 16:46:02;;;;;;;3.80;3.30;;;19.50;99.90;;;;;;4860769;29;20472;-75
2021/09/27 16:48:28;;;;;;;4.47;4.07;;;19.50;99.90;;;;;;4859921;29;20472;-76
2021/09/27 16:50:55;;;;;;;5.57;3.73;;;19.50;99.90;;;;;;4860545;29;20496;-76
2021/09/27 16:53:22;;;;;;;7.07;4.10;;;19.40;99.90;;;;;;4860689;29;20496;-75
2021/09/27 16:55:51;;;;;;;3.93;3.07;;;19.40;99.90;;;;;;4860830;29;20855;-76
2021/09/27 16:58:18;;;;;;;5.30;3.37;;;19.40;99.90;;;;;;4860331;29;20460;-76
2021/09/27 17:00:45;;;;;;;4.37;3.50;;;19.30;99.90;;;;;;4860762;29;20476;-75
2021/09/27 17:03:13;;;;;;;4.87;3.30;;;19.30;99.90;;;;;;4860252;29;20476;-76
2021/09/27 17:05:40;;;;;;;4.50;3.40;;;19.30;99.90;;;;;;4860219;29;20479;-76
2021/09/27 17:08:07;;;;;;;4.70;3.10;;;19.20;99.90;;;;;;4859999;29;20476;-76
2021/09/27 17:10:33;;;;;;;4.10;3.47;;;19.20;99.90;;;;;;4860608;29;20495;-76
2021/09/27 17:13:02;;;;;;;6.20;3.60;;;19.10;99.90;;;;;;4860436;29;20956;-76
2021/09/27 17:18:14;;;;;;;3.53;3.23;;;19.00;99.90;;;;;;4859521;29;20447;-76
2021/09/27 17:20:47;;;;;;;4.17;3.03;;;18.90;99.90;;;;;;4860459;29;20475;-76
2021/09/27 17:23:16;;;;;;;4.60;3.40;;;18.90;99.90;;;;;;4860360;29;20843;-75
2021/09/27 17:25:43;;;;;;;4.10;3.00;;;18.80;99.90;;;;;;4860351;29;20473;-76
2021/09/27 17:28:12;;;;;;;3.97;3.37;;;18.80;99.90;;;;;;4859564;29;20479;-76
2021/09/27 17:30:41;;;;;;;3.10;2.80;;;18.70;99.90;;;;;;4860143;29;20501;-76
2021/09/27 17:33:08;;;;;;;3.57;3.27;;;18.60;99.90;;;;;;4859794;29;20479;-76
2021/09/27 17:35:36;;;;;;;3.20;2.90;;;18.60;99.90;;;;;;4860073;29;20852;-76
2021/09/27 17:38:04;;;;;;;5.63;3.47;;;18.50;99.90;;;;;;4859394;29;20862;-75
2021/09/27 17:40:31;;;;;;;4.77;2.87;;;18.50;99.90;;;;;;4859866;29;20471;-76
2021/09/27 17:42:58;;;;;;;3.47;3.17;;;18.50;99.90;;;;;;4859507;29;20852;-76
2021/09/27 17:45:25;;;;;;;4.00;3.70;;;18.40;99.90;;;;;;4859655;29;20511;-76
2021/09/27 17:47:53;;;;;;;4.30;3.60;;;18.30;99.90;;;;;;4859557;29;20571;-76
2021/09/27 17:50:22;;;;;;;3.13;2.83;;;18.20;99.90;;;;;;4859190;29;20468;-77
2021/09/27 17:52:51;;;;;;;3.77;3.40;;;18.10;99.90;;;;;;4859458;29;20476;-75
2021/09/27 17:55:18;;;;;;;4.80;3.17;;;18.10;99.90;;;;;;4859223;29;20499;-74
2021/09/27 17:57:44;;;;;;;3.27;3.00;;;18.00;99.90;;;;;;4858789;29;20475;-76
2021/09/27 18:00:13;;;;;;;4.63;3.50;;;18.00;99.90;;;;;;4859276;29;20491;-76
2021/09/27 18:02:41;;;;;;;3.70;3.40;;;17.90;99.90;;;;;;4859428;29;20468;-75
2021/09/27 18:05:09;;;;;;;3.43;3.13;;;17.70;99.90;;;;;;4859336;29;20492;-75
2021/09/27 18:07:36;;;;;;;5.63;3.10;;;17.60;99.90;;;;;;4858704;29;20476;-75
2021/09/27 18:10:05;;;;;;;3.77;3.30;;;17.60;99.90;;;;;;4859291;29;20502;-75
2021/09/27 18:12:32;;;;;;;3.27;3.07;;;17.50;99.90;;;;;;4859445;29;20472;-76
2021/09/27 18:14:59;;;;;;;3.10;2.80;;;17.50;99.90;;;;;;4859309;29;20499;-75
2021/09/27 18:17:29;;;;;;;4.17;3.77;;;17.50;99.90;;;;;;4856091;29;20495;-76
2021/09/27 18:19:55;;;;;;;3.30;3.00;;;17.40;99.90;;;;;;4877359;29;20548;-76
2021/09/27 18:22:23;;;;;;;3.30;2.93;;;17.40;99.90;;;;;;4877165;29;20482;-76
2021/09/27 18:24:50;;;;;;;3.83;2.93;;;17.40;99.90;;;;;;4877538;29;20483;-76
2021/09/27 18:27:19;;;;;;;4.40;3.30;;;17.30;99.90;;;;;;4876724;29;20472;-76
2021/09/27 18:29:46;;;;;;;3.27;2.90;;;17.30;99.90;;;;;;4877305;29;20501;-76
2021/09/27 18:32:13;;;;;;;3.73;2.97;;;17.30;99.90;;;;;;4877477;29;20472;-77
2021/09/27 18:34:40;;;;;;;4.10;2.87;;;17.20;99.90;;;;;;4877555;29;20490;-76
2021/09/27 18:37:07;;;;;;;4.87;3.13;;;17.20;99.90;;;;;;4877606;29;20982;-77
2021/09/27 18:39:33;;;;;;;3.30;3.00;;;17.20;99.90;;;;;;4878278;29;20503;-77
2021/09/27 18:42:00;;;;;;;3.30;3.00;;;17.10;99.90;;;;;;4878508;29;20467;-76
2021/09/27 18:44:28;;;;;;;3.20;2.90;;;17.10;99.90;;;;;;4878799;29;20498;-77
2021/09/27 18:46:55;;;;;;;3.90;3.20;;;17.00;99.90;;;;;;4878039;29;20500;-76
2021/09/27 18:49:23;;;;;;;3.00;2.57;;;17.00;99.90;;;;;;4878776;29;20495;-77
2021/09/27 18:51:50;;;;;;;2.83;2.53;;;17.00;99.90;;;;;;4878994;29;20946;-77
2021/09/27 18:54:17;;;;;;;3.20;2.90;;;17.00;99.90;;;;;;4878494;29;20503;-76
2021/09/27 18:56:44;;;;;;;3.40;3.20;;;17.00;99.90;;;;;;4878144;29;20467;-77
2021/09/27 18:59:10;;;;;;;3.40;3.10;;;16.90;99.90;;;;;;4879019;29;20499;-77
2021/09/27 19:01:39;;;;;;;4.07;3.17;;;16.90;99.90;;;;;;4947109;23;20467;-74
2021/09/27 19:04:06;;;;;;;3.37;3.07;;;16.90;99.90;;;;;;4857127;29;20851;-75
2021/09/27 19:06:33;;;;;;;3.80;3.10;;;16.80;99.90;;;;;;4857987;29;20475;-75
2021/09/27 19:08:59;;;;;;;3.23;2.93;;;16.80;99.90;;;;;;4858348;29;20464;-75
2021/09/27 19:11:26;;;;;;;3.50;2.80;;;16.70;99.90;;;;;;4867398;29;20524;-75
2021/09/27 19:13:53;;;;;;;4.73;3.10;;;16.70;99.90;;;;;;4876689;29;20523;-75
2021/09/27 19:16:20;;;;;;;3.37;3.00;;;16.60;99.90;;;;;;4876788;29;20478;-75
2021/09/27 19:18:48;;;;;;;4.17;3.13;;;16.60;99.90;;;;;;4876037;29;20471;-75
2021/09/27 19:21:18;;;;;;;3.73;2.87;;;16.60;99.90;;;;;;4877110;29;20503;-75
2021/09/27 19:23:46;;;;;;;3.73;3.30;;;16.60;99.90;;;;;;4876391;29;20611;-75
2021/09/27 19:26:16;;;;;;;3.30;2.97;;;16.60;99.90;;;;;;4876634;29;20527;-75
2021/09/27 19:28:43;;;;;;;3.77;3.47;;;16.50;99.90;;;;;;4876311;29;20499;-75
2021/09/27 19:31:12;;;;;;;4.20;3.83;;;16.50;99.90;;;;;;4876569;29;20491;-76
2021/09/27 19:33:39;;;;;;;3.20;3.00;;;16.60;99.90;;;;;;4877060;29;20495;-75
2021/09/27 19:36:08;;;;;;;4.10;3.17;;;16.50;99.90;;;;;;4876790;29;20835;-75
2021/09/27 19:38:36;;;;;;;5.33;3.23;;;16.60;99.90;;;;;;4876503;29;20490;-75
2021/09/27 19:41:03;;;;;;;3.73;3.37;;;16.60;99.90;;;;;;4876718;29;20470;-75
2021/09/27 19:43:31;;;;;;;3.60;3.30;;;16.60;99.90;;;;;;4876419;29;20491;-75
2021/09/27 19:45:59;;;;;;;3.50;3.20;;;16.50;99.90;;;;;;4876248;29;20539;-74
2021/09/27 19:48:26;;;;;;;3.50;3.20;;;16.60;99.90;;;;;;4875884;29;20958;-75
2021/09/27 19:50:54;;;;;;;3.93;3.53;;;16.50;99.90;;;;;;4876356;29;20518;-75
2021/09/27 19:53:23;;;;;;;3.70;3.40;;;16.50;99.90;;;;;;4876510;29;20553;-75
2021/09/27 19:55:50;;;;;;;4.03;3.47;;;16.50;99.90;;;;;;4876367;29;21132;-75
2021/09/27 19:58:17;;;;;;;4.43;4.00;;;16.50;99.90;;;;;;4875869;29;20842;-75
2021/09/27 20:00:47;;;;;;;3.57;3.27;;;16.40;99.90;;;;;;4876246;29;20472;-75
2021/09/27 20:03:14;;;;;;;4.07;3.67;;;16.40;99.90;;;;;;4876207;29;20475;-74
2021/09/27 20:05:43;;;;;;;4.37;3.90;;;16.30;99.90;;;;;;4876280;29;20478;-74
2021/09/27 20:08:11;;;;;;;5.00;3.53;;;16.30;99.90;;;;;;4878733;29;20471;-75
2021/09/27 20:10:40;;;;;;;3.90;3.50;;;16.30;99.90;;;;;;4879650;29;20495;-75
2021/09/27 20:13:07;;;;;;;3.93;3.53;;;16.20;99.90;;;;;;4879622;29;20479;-74
2021/09/27 20:15:36;;;;;;;5.90;3.50;;;16.20;99.90;;;;;;4879855;29;20471;-75
2021/09/27 20:18:07;;;;;;;5.43;3.80;;;16.10;99.90;;;;;;4879002;29;21092;-74
2021/09/27 20:20:34;;;;;;;3.70;3.40;;;16.10;99.90;;;;;;4879533;29;20473;-75
2021/09/27 20:23:02;;;;;;;3.67;3.37;;;16.10;99.90;;;;;;4879542;29;20474;-74
2021/09/27 20:25:29;;;;;;;3.93;3.63;;;16.10;99.90;;;;;;4879104;29;20483;-75
2021/09/27 20:27:58;;;;;;;4.23;3.83;;;16.20;99.90;;;;;;4879673;29;20467;-75
2021/09/27 20:30:27;;;;;;;4.33;3.30;;;16.10;99.90;;;;;;4879553;29;20861;-74
2021/09/27 20:32:55;;;;;;;3.60;3.30;;;16.20;99.90;;;;;;4879711;29;20471;-75
2021/09/27 20:35:21;;;;;;;3.67;3.37;;;16.10;99.90;;;;;;4879475;29;20873;-75
2021/09/27 20:37:48;;;;;;;4.37;3.23;;;16.20;99.90;;;;;;4879076;29;20463;-75
2021/09/27 20:40:17;;;;;;;4.23;3.20;;;16.20;99.90;;;;;;4879479;29;20459;-75
2021/09/27 20:42:44;;;;;;;3.70;3.37;;;16.20;99.90;;;;;;4879585;29;20901;-76
2021/09/27 20:45:14;;;;;;;3.40;3.10;;;16.20;99.90;;;;;;4879260;29;20506;-75
2021/09/27 20:47:40;;;;;;;4.53;3.73;;;16.20;99.90;;;;;;4878914;29;20467;-75
2021/09/27 20:50:09;;;;;;;4.07;3.67;;;16.20;99.90;;;;;;4879357;29;20492;-75
2021/09/27 20:52:36;;;;;;;4.00;3.60;;;16.20;99.90;;;;;;4879278;29;20475;-75
2021/09/27 20:55:03;;;;;;;3.53;3.23;;;16.30;99.90;;;;;;4879451;29;20720;-76
2021/09/27 20:57:30;;;;;;;4.20;3.17;;;16.20;99.90;;;;;;4878914;29;20480;-75
2021/09/27 20:59:57;;;;;;;3.70;3.00;;;16.30;99.90;;;;;;4879196;29;20955;-75
2021/09/27 21:02:25;;;;;;;3.50;3.10;;;16.20;99.90;;;;;;4878710;29;20479;-75
2021/09/27 21:04:51;;;;;;;4.50;3.77;;;16.20;99.90;;;;;;4879017;29;20910;-75
2021/09/27 21:07:18;;;;;;;3.20;2.97;;;16.20;99.90;;;;;;4878771;29;20475;-75
2021/09/27 21:09:45;;;;;;;3.90;3.60;;;16.20;99.90;;;;;;4878856;29;20475;-75
2021/09/27 21:12:12;;;;;;;3.60;3.30;;;16.20;99.90;;;;;;4879008;29;20641;-75
2021/09/27 21:14:39;;;;;;;3.63;3.23;;;16.20;99.90;;;;;;4878752;29;20491;-75
2021/09/27 21:17:06;;;;;;;4.10;3.23;;;16.20;99.90;;;;;;4878556;29;20969;-75
2021/09/27 21:19:34;;;;;;;4.67;3.50;;;16.20;99.90;;;;;;4878238;29;20839;-75
2021/09/27 21:22:00;;;;;;;3.57;3.23;;;16.20;99.90;;;;;;4878818;29;20467;-75
2021/09/27 21:24:27;;;;;;;4.53;3.40;;;16.10;99.90;;;;;;4878713;29;20491;-75
2021/09/27 21:26:54;;;;;;;2.93;2.73;;;16.20;99.90;;;;;;4878771;29;20868;-75
2021/09/27 21:29:20;;;;;;;5.47;3.47;;;16.10;99.90;;;;;;4878352;29;20479;-75
2021/09/27 21:31:47;;;;;;;3.47;3.17;;;16.10;99.90;;;;;;4878228;29;20496;-75
2021/09/27 21:34:14;;;;;;;4.40;3.70;;;16.10;99.90;;;;;;4878446;29;20488;-75
2021/09/27 21:36:42;;;;;;;3.50;3.20;;;16.10;99.90;;;;;;4878239;29;20505;-75
2021/09/27 21:39:15;;;;;;;4.70;3.47;;;16.20;99.90;;;;;;4877938;29;20482;-75
2021/09/27 21:41:41;;;;;;;3.27;2.97;;;16.20;99.90;;;;;;4878351;29;20475;-75
2021/09/27 21:44:08;;;;;;;3.93;3.43;;;16.20;99.90;;;;;;4877972;29;20484;-75
2021/09/27 21:46:35;;;;;;;3.37;3.03;;;16.20;99.90;;;;;;4878177;29;20550;-75
2021/09/27 21:49:02;;;;;;;3.40;3.10;;;16.20;99.90;;;;;;4877769;29;20463;-75
2021/09/27 21:51:28;;;;;;;4.40;4.00;;;16.10;99.90;;;;;;4878099;29;21030;-75
2021/09/27 21:53:56;;;;;;;3.47;3.17;;;16.20;99.90;;;;;;4878009;29;20491;-76
2021/09/27 21:56:23;;;;;;;3.77;3.47;;;16.20;99.90;;;;;;4878134;29;20464;-75
2021/09/27 21:58:50;;;;;;;3.80;3.30;;;16.20;99.90;;;;;;4877370;29;20974;-75
2021/09/27 22:01:16;;;;;;;3.90;3.27;;;16.10;99.90;;;;;;4878012;29;20474;-75
2021/09/27 22:03:43;;;;;;;3.47;3.17;;;16.10;99.90;;;;;;4877623;29;21167;-75
2021/09/27 22:06:11;;;;;;;3.30;3.00;;;16.10;99.90;;;;;;4878038;29;20850;-75
2021/09/27 22:08:38;;;;;;;4.10;3.70;;;16.20;99.90;;;;;;4877088;29;20970;-75
2021/09/27 22:11:05;;;;;;;4.00;3.70;;;16.10;99.90;;;;;;4877790;29;20502;-76
2021/09/27 22:13:32;;;;;;;4.63;3.13;;;16.10;99.90;;;;;;4877539;29;20487;-75
2021/09/27 22:15:59;;;;;;;3.57;3.27;;;16.20;99.90;;;;;;4877314;29;20479;-76
2021/09/27 22:18:25;;;;;;;3.67;3.30;;;16.10;99.90;;;;;;4877108;29;20472;-76
2021/09/27 22:20:52;;;;;;;3.77;3.20;;;16.20;99.90;;;;;;4877563;29;20967;-75
2021/09/27 22:23:22;;;;;;;3.60;3.30;;;16.20;99.90;;;;;;4877429;29;20479;-75
2021/09/27 22:25:49;;;;;;;4.70;3.47;;;16.20;99.90;;;;;;4877840;29;20471;-75
2021/09/27 22:28:18;;;;;;;3.40;3.10;;;16.20;99.90;;;;;;4876860;29;20467;-76
2021/09/27 22:30:45;;;;;;;4.43;3.60;;;16.20;99.90;;;;;;4877340;29;20483;-75
2021/09/27 22:33:12;;;;;;;4.33;3.13;;;16.20;99.90;;;;;;4877135;29;20468;-77
2021/09/27 22:35:40;;;;;;;4.70;4.30;;;16.20;99.90;;;;;;4877424;29;20472;-75
2021/09/27 22:38:06;;;;;;;3.53;3.20;;;16.20;99.90;;;;;;4876940;29;20463;-76
2021/09/27 22:40:35;;;;;;;3.80;3.50;;;16.20;99.90;;;;;;4877214;29;20971;-75
2021/09/27 22:43:02;;;;;;;3.90;3.40;;;16.20;99.90;;;;;;4877347;29;20482;-75
2021/09/27 22:45:28;;;;;;;4.23;3.20;;;16.20;99.90;;;;;;4877027;29;20491;-75
2021/09/27 22:47:55;;;;;;;3.60;3.30;;;16.20;99.90;;;;;;4876838;29;20496;-77
2021/09/27 22:50:23;;;;;;;4.43;3.17;;;16.20;99.90;;;;;;4877144;29;20531;-75
2021/09/27 22:52:50;;;;;;;4.20;3.80;;;16.20;99.90;;;;;;4877190;29;20471;-76
2021/09/27 22:55:16;;;;;;;6.00;3.40;;;16.20;99.90;;;;;;4876984;29;20487;-76
2021/09/27 22:57:47;;;;;;;3.70;3.40;;;16.20;99.90;;;;;;4876601;29;20467;-75
2021/09/27 23:00:15;;;;;;;3.67;3.37;;;16.10;99.90;;;;;;4877143;29;20464;-75
2021/09/27 23:02:43;;;;;;;4.20;3.17;;;16.10;99.90;;;;;;4876889;29;20490;-75
2021/09/27 23:05:11;;;;;;;3.70;2.90;;;16.20;99.90;;;;;;4876928;29;21019;-76
2021/09/27 23:07:38;;;;;;;6.40;3.80;;;16.20;99.90;;;;;;4876584;29;20831;-75
2021/09/27 23:10:06;;;;;;;4.50;3.13;;;16.20;99.90;;;;;;4877095;29;20470;-77
2021/09/27 23:12:33;;;;;;;3.27;3.00;;;16.20;99.90;;;;;;4876782;29;20503;-75
2021/09/27 23:15:01;;;;;;;3.03;2.77;;;16.20;99.90;;;;;;4876998;29;20832;-76
2021/09/27 23:17:28;;;;;;;4.73;2.73;;;16.20;99.90;;;;;;4876414;29;20475;-76
2021/09/27 23:19:54;;;;;;;2.57;2.00;;;16.20;99.90;;;;;;4876860;29;20478;-75
2021/09/27 23:22:23;;;;;;;2.30;1.73;;;16.20;99.90;;;;;;4876821;29;20467;-76
2021/09/27 23:24:50;;;;;;;2.30;2.10;;;16.20;99.90;;;;;;4876848;29;21020;-75
2021/09/27 23:27:17;;;;;;;1.80;1.70;;;16.10;99.90;;;;;;4876459;29;20467;-76
2021/09/27 23:29:44;;;;;;;2.87;2.00;;;16.00;99.90;;;;;;4876619;29;20468;-75
2021/09/27 23:32:14;;;;;;;3.70;1.37;;;16.00;99.90;;;;;;4876590;29;20915;-76
2021/09/27 23:34:41;;;;;;;3.40;1.30;;;15.90;99.90;;;;;;4876697;29;20492;-76
2021/09/27 23:37:08;;;;;;;1.40;1.30;;;15.90;99.90;;;;;;4876750;29;20966;-75
2021/09/27 23:39:34;;;;;;;1.63;1.53;;;15.90;99.90;;;;;;4876138;29;20471;-75
2021/09/27 23:42:01;;;;;;;1.83;1.00;;;15.80;99.90;;;;;;4878239;29;20985;-77
2021/09/27 23:44:28;;;;;;;2.63;1.23;;;15.80;99.90;;;;;;4880059;29;20492;-75
2021/09/27 23:46:55;;;;;;;1.07;0.97;;;15.70;99.90;;;;;;4880328;29;20467;-75
2021/09/27 23:49:23;;;;;;;3.33;1.10;;;15.70;99.90;;;;;;4879669;29;21227;-75
2021/09/27 23:51:49;;;;;;;3.53;1.27;;;15.60;99.90;;;;;;4880349;29;20495;-75
2021/09/27 23:54:16;;;;;;;1.87;1.00;;;15.60;99.90;;;;;;4879818;29;20499;-76
2021/09/27 23:56:43;;;;;;;1.20;1.00;;;15.60;99.90;;;;;;4880284;29;20471;-75